createdAt,value
2018-12-23T00:01:54.399Z,8.88
2018-12-23T00:04:23.373Z,8.92
2018-12-23T00:06:52.340Z,8.99
2018-12-23T00:09:21.357Z,8.96
2018-12-23T00:11:50.418Z,8.79
2018-12-23T00:14:19.424Z,8.63
2018-12-23T00:16:48.404Z,8.52
2018-12-23T00:19:17.421Z,8.37
2018-12-23T00:21:46.348Z,8.33
2018-12-23T00:24:15.354Z,8.30
2018-12-23T00:26:44.325Z,8.28
2018-12-23T00:29:13.310Z,8.21
2018-12-23T00:31:42.341Z,8.18
2018-12-23T00:34:11.322Z,8.07
2018-12-23T00:36:40.260Z,7.91
2018-12-23T00:39:09.301Z,7.80
2018-12-23T00:41:52.532Z,7.83
2018-12-23T00:44:21.562Z,7.72
2018-12-23T00:46:50.561Z,7.65
2018-12-23T00:49:19.536Z,7.61
2018-12-23T00:51:48.479Z,7.52
2018-12-23T00:54:17.774Z,7.38
2018-12-23T00:56:46.692Z,7.25
2018-12-23T00:59:15.711Z,7.16
2018-12-23T01:01:44.845Z,7.21
2018-12-23T01:04:13.810Z,7.19
2018-12-23T01:06:42.756Z,7.31
2018-12-23T01:09:11.814Z,7.88
2018-12-23T01:11:40.725Z,8.14
2018-12-23T01:14:09.626Z,8.46
2018-12-23T01:16:38.501Z,8.93
2018-12-23T01:19:07.429Z,9.01
2018-12-23T01:21:36.346Z,9.19
2018-12-23T01:24:05.325Z,9.34
2018-12-23T01:26:34.459Z,9.44
2018-12-23T01:29:03.385Z,9.49
2018-12-23T01:31:32.357Z,9.59
2018-12-23T01:34:01.305Z,9.64
2018-12-23T01:36:30.273Z,9.83
2018-12-23T01:38:59.297Z,9.70
2018-12-23T01:41:28.320Z,9.70
2018-12-23T01:43:57.398Z,9.63
2018-12-23T01:46:26.457Z,9.89
2018-12-23T01:48:55.481Z,9.86
2018-12-23T01:51:24.453Z,9.87
2018-12-23T01:53:53.468Z,9.78
2018-12-23T01:56:22.333Z,9.84
2018-12-23T01:58:51.361Z,9.80
2018-12-23T02:01:20.317Z,9.84
2018-12-23T02:03:49.338Z,9.90
2018-12-23T02:06:18.314Z,9.97
2018-12-23T02:08:47.286Z,9.94
2018-12-23T02:11:16.297Z,10.11
2018-12-23T02:13:45.255Z,10.12
2018-12-23T02:16:14.264Z,10.20
2018-12-23T02:18:43.246Z,10.28
2018-12-23T02:21:12.213Z,10.35
2018-12-23T02:23:41.241Z,10.27
2018-12-23T02:26:10.113Z,10.17
2018-12-23T02:28:39.090Z,10.30
2018-12-23T02:31:08.014Z,10.39
2018-12-23T02:33:37.080Z,10.43
2018-12-23T02:36:06.049Z,10.39
2018-12-23T02:38:34.986Z,10.35
2018-12-23T02:41:03.949Z,10.29
2018-12-23T02:43:32.801Z,10.43
2018-12-23T02:46:01.719Z,10.64
2018-12-23T02:48:30.627Z,10.86
2018-12-23T02:50:59.621Z,10.88
2018-12-23T02:53:28.512Z,10.86
2018-12-23T02:55:57.586Z,10.81
2018-12-23T02:58:26.532Z,10.76
2018-12-23T03:00:55.462Z,10.62
2018-12-23T03:03:24.489Z,10.53
2018-12-23T03:05:53.510Z,10.50
2018-12-23T03:08:22.543Z,10.41
2018-12-23T03:10:51.577Z,10.37
2018-12-23T03:13:20.626Z,10.24
2018-12-23T03:15:49.554Z,10.36
2018-12-23T03:18:18.439Z,10.52
2018-12-23T03:20:47.336Z,10.57
2018-12-23T03:23:16.444Z,10.54
2018-12-23T03:25:45.473Z,10.46
2018-12-23T03:28:14.416Z,10.34
2018-12-23T03:30:43.335Z,10.54
2018-12-23T03:33:12.319Z,10.54
2018-12-23T03:35:41.293Z,10.46
2018-12-23T03:38:10.241Z,10.36
2018-12-23T03:40:39.212Z,10.42
2018-12-23T03:43:08.278Z,10.48
2018-12-23T03:45:37.314Z,10.66
2018-12-23T03:48:06.261Z,10.69
2018-12-23T03:50:35.186Z,10.68
2018-12-23T03:53:04.261Z,10.57
2018-12-23T03:55:33.264Z,10.58
2018-12-23T03:58:02.518Z,10.62
2018-12-23T04:00:31.349Z,10.62
2018-12-23T04:03:00.338Z,10.61
2018-12-23T04:05:29.272Z,10.56
2018-12-23T04:07:58.297Z,10.62
2018-12-23T04:10:27.264Z,10.54
2018-12-23T04:12:56.380Z,10.50
2018-12-23T04:15:25.511Z,10.43
2018-12-23T04:17:54.554Z,10.38
2018-12-23T04:20:23.474Z,10.57
2018-12-23T04:22:52.496Z,10.48
2018-12-23T04:25:21.387Z,10.44
2018-12-23T04:27:50.321Z,10.44
2018-12-23T04:30:19.400Z,10.77
2018-12-23T04:32:48.389Z,10.84
2018-12-23T04:35:17.432Z,10.84
2018-12-23T04:37:46.307Z,10.81
2018-12-23T04:40:15.293Z,10.78
2018-12-23T04:42:44.313Z,10.86
2018-12-23T04:45:13.313Z,10.79
2018-12-23T04:47:42.295Z,10.73
2018-12-23T04:50:11.365Z,10.74
2018-12-23T04:52:40.390Z,10.70
2018-12-23T04:55:09.402Z,10.61
2018-12-23T04:57:38.472Z,10.51
2018-12-23T05:00:07.364Z,10.51
2018-12-23T05:02:36.382Z,10.48
2018-12-23T05:05:05.410Z,10.54
2018-12-23T05:07:34.411Z,10.49
2018-12-23T05:10:03.289Z,10.53
2018-12-23T05:12:32.252Z,10.48
2018-12-23T05:15:01.281Z,10.42
2018-12-23T05:17:30.214Z,10.36
2018-12-23T05:19:59.178Z,10.31
2018-12-23T05:22:28.146Z,10.15
2018-12-23T05:24:57.121Z,10.21
2018-12-23T05:27:26.114Z,10.22
2018-12-23T05:29:55.149Z,10.31
2018-12-23T05:32:24.126Z,10.22
2018-12-23T05:34:53.105Z,10.26
2018-12-23T05:37:22.022Z,10.27
2018-12-23T05:39:51.117Z,10.17
2018-12-23T05:42:20.141Z,10.14
2018-12-23T05:44:49.205Z,10.12
2018-12-23T05:47:18.358Z,10.10
2018-12-23T05:49:47.488Z,10.01
2018-12-23T05:52:16.553Z,10.14
2018-12-23T05:54:45.525Z,10.15
2018-12-23T05:57:14.546Z,10.04
2018-12-23T05:59:43.465Z,10.03
2018-12-23T06:02:12.406Z,10.15
2018-12-23T06:04:41.344Z,10.10
2018-12-23T06:07:10.270Z,10.01
2018-12-23T06:09:39.246Z,9.99
2018-12-23T06:12:08.162Z,9.90
2018-12-23T06:14:37.257Z,9.97
2018-12-23T06:17:06.285Z,9.93
2018-12-23T06:19:35.269Z,9.96
2018-12-23T06:22:04.238Z,9.96
2018-12-23T06:24:33.385Z,9.95
2018-12-23T06:27:02.316Z,10.05
2018-12-23T06:29:31.276Z,10.15
2018-12-23T06:32:00.308Z,10.44
2018-12-23T06:34:29.196Z,10.43
2018-12-23T06:36:58.177Z,10.57
2018-12-23T06:39:27.116Z,10.62
2018-12-23T06:41:56.054Z,10.60
2018-12-23T06:44:25.032Z,10.65
2018-12-23T06:46:53.949Z,10.70
2018-12-23T06:49:22.978Z,10.73
2018-12-23T06:51:52.008Z,10.83
2018-12-23T06:54:20.995Z,10.90
2018-12-23T06:56:50.006Z,11.05
2018-12-23T06:59:19.070Z,11.24
2018-12-23T07:01:47.906Z,11.32
2018-12-23T07:04:16.797Z,11.35
2018-12-23T07:06:45.822Z,11.40
2018-12-23T07:09:14.668Z,11.41
2018-12-23T07:11:43.568Z,11.47
2018-12-23T07:14:12.558Z,11.53
2018-12-23T07:16:41.677Z,11.56
2018-12-23T07:19:10.677Z,11.59
2018-12-23T07:21:39.629Z,11.62
2018-12-23T07:24:08.612Z,11.62
2018-12-23T07:26:37.586Z,11.61
2018-12-23T07:29:06.689Z,11.69
2018-12-23T07:31:35.757Z,11.70
2018-12-23T07:34:04.753Z,11.73
2018-12-23T07:36:33.736Z,11.78
2018-12-23T07:39:02.927Z,11.78
2018-12-23T07:41:32.072Z,11.75
2018-12-23T07:44:00.956Z,11.78
2018-12-23T07:46:29.998Z,11.95
2018-12-23T07:49:36.498Z,12.03
2018-12-23T07:52:06.390Z,12.00
2018-12-23T07:54:36.392Z,11.89
2018-12-23T07:57:06.264Z,11.77
2018-12-23T07:59:36.189Z,11.71
2018-12-23T08:02:06.270Z,11.82
2018-12-23T08:04:36.387Z,11.89
2018-12-23T08:07:06.358Z,12.02
2018-12-23T08:09:36.328Z,12.14
2018-12-23T08:12:06.460Z,12.21
2018-12-23T08:14:36.572Z,12.31
2018-12-23T08:17:06.494Z,12.33
2018-12-23T08:19:36.543Z,12.42
2018-12-23T08:22:06.519Z,12.52
2018-12-23T08:24:36.454Z,12.62
2018-12-23T08:27:06.357Z,12.71
2018-12-23T08:29:36.410Z,12.82
2018-12-23T08:32:06.384Z,12.83
2018-12-23T08:34:36.457Z,12.88
2018-12-23T08:37:06.469Z,12.91
2018-12-23T08:39:36.308Z,12.99
2018-12-23T08:42:06.210Z,13.08
2018-12-23T08:44:36.194Z,13.05
2018-12-23T08:47:06.070Z,13.00
2018-12-23T08:49:35.956Z,13.03
2018-12-23T08:52:05.906Z,13.08
2018-12-23T08:54:36.059Z,13.17
2018-12-23T08:57:06.053Z,13.52
2018-12-23T08:59:35.936Z,13.77
2018-12-23T09:02:05.874Z,14.02
2018-12-23T09:04:35.918Z,13.98
2018-12-23T09:07:05.809Z,13.95
2018-12-23T09:09:35.691Z,13.80
2018-12-23T09:12:05.529Z,13.88
2018-12-23T09:14:35.372Z,13.94
2018-12-23T09:17:05.292Z,14.10
2018-12-23T09:19:38.384Z,14.27
2018-12-23T09:22:08.499Z,14.48
2018-12-23T09:24:38.376Z,14.89
2018-12-23T09:27:08.275Z,15.07
2018-12-23T09:29:38.164Z,15.05
2018-12-23T09:32:08.128Z,15.08
2018-12-23T09:34:38.081Z,15.15
2018-12-23T09:37:07.957Z,15.16
2018-12-23T09:39:37.921Z,15.19
2018-12-23T09:42:07.991Z,15.51
2018-12-23T09:44:37.893Z,15.51
2018-12-23T09:47:07.824Z,15.63
2018-12-23T09:49:37.887Z,15.89
2018-12-23T09:52:07.741Z,16.51
2018-12-23T09:54:37.631Z,17.02
2018-12-23T09:57:07.552Z,16.79
2018-12-23T09:59:37.532Z,16.48
2018-12-23T10:02:07.516Z,16.29
2018-12-23T10:04:37.503Z,15.98
2018-12-23T10:07:07.448Z,16.46
2018-12-23T10:09:37.330Z,16.59
2018-12-23T10:12:07.290Z,16.86
2018-12-23T10:14:37.256Z,16.52
2018-12-23T10:17:07.152Z,16.37
2018-12-23T10:19:37.188Z,16.52
2018-12-23T10:22:07.040Z,16.18
2018-12-23T10:24:36.846Z,15.54
2018-12-23T10:27:06.794Z,15.20
2018-12-23T10:29:36.636Z,15.55
2018-12-23T10:32:06.479Z,15.57
2018-12-23T10:34:36.552Z,16.19
2018-12-23T10:37:06.528Z,16.62
2018-12-23T10:39:36.449Z,16.97
2018-12-23T10:42:06.454Z,16.66
2018-12-23T10:44:36.551Z,16.73
2018-12-23T10:47:06.598Z,16.65
2018-12-23T10:49:36.514Z,16.47
2018-12-23T10:52:06.451Z,16.70
2018-12-23T10:54:36.479Z,16.79
2018-12-23T10:57:06.379Z,16.41
2018-12-23T10:59:36.225Z,15.87
2018-12-23T11:02:13.481Z,15.16
2018-12-23T11:04:37.752Z,15.53
2018-12-23T11:07:07.672Z,16.41
2018-12-23T11:09:37.508Z,16.83
2018-12-23T11:12:07.323Z,16.78
2018-12-23T11:14:37.284Z,16.65
2018-12-23T11:17:07.171Z,16.35
2018-12-23T11:19:37.014Z,16.81
2018-12-23T11:22:07.040Z,17.05
2018-12-23T11:24:37.165Z,16.74
2018-12-23T11:27:06.275Z,16.73
2018-12-23T11:29:36.154Z,16.20
2018-12-23T11:32:06.036Z,16.11
2018-12-23T11:34:36.081Z,16.48
2018-12-23T11:37:06.139Z,16.70
2018-12-23T11:39:36.022Z,17.04
2018-12-23T11:42:05.915Z,17.23
2018-12-23T11:44:35.971Z,16.89
2018-12-23T11:47:05.909Z,16.67
2018-12-23T11:49:35.807Z,16.17
2018-12-23T11:52:05.720Z,16.13
2018-12-23T11:54:35.626Z,15.24
2018-12-23T11:57:05.553Z,14.30
2018-12-23T11:59:35.434Z,13.98
2018-12-23T12:02:05.467Z,13.75
2018-12-23T12:04:35.817Z,13.58
2018-12-23T12:07:05.934Z,13.33
2018-12-23T12:09:35.960Z,13.10
2018-12-23T12:12:05.864Z,13.07
2018-12-23T12:14:35.783Z,12.89
2018-12-23T12:17:05.679Z,12.89
2018-12-23T12:19:35.596Z,12.77
2018-12-23T12:22:05.489Z,12.77
2018-12-23T12:24:35.441Z,12.72
2018-12-23T12:27:05.437Z,12.54
2018-12-23T12:29:35.365Z,12.45
2018-12-23T12:32:05.188Z,12.45
2018-12-23T12:34:35.094Z,12.24
2018-12-23T12:37:04.968Z,12.36
2018-12-23T12:39:34.967Z,12.33
2018-12-23T12:42:04.957Z,12.32
2018-12-23T12:44:35.070Z,12.23
2018-12-23T12:47:04.959Z,12.20
2018-12-23T12:49:34.875Z,12.19
2018-12-23T12:52:05.025Z,12.16
2018-12-23T12:54:34.978Z,12.12
2018-12-23T12:57:04.895Z,12.05
2018-12-23T12:59:34.811Z,12.04
2018-12-23T13:02:04.669Z,12.08
2018-12-23T13:04:34.541Z,12.05
2018-12-23T13:07:04.507Z,12.07
2018-12-23T13:09:34.396Z,12.06
2018-12-23T13:12:04.254Z,12.03
2018-12-23T13:14:34.120Z,12.04
2018-12-23T13:17:04.145Z,12.01
2018-12-23T13:19:34.073Z,11.97
2018-12-23T13:22:04.032Z,11.89
2018-12-23T13:24:33.869Z,11.85
2018-12-23T13:27:04.784Z,11.80
2018-12-23T13:29:34.775Z,11.79
2018-12-23T13:32:04.704Z,11.78
2018-12-23T13:34:34.587Z,11.76
2018-12-23T13:37:04.515Z,11.70
2018-12-23T13:39:35.972Z,11.71
2018-12-23T13:42:45.197Z,11.69
2018-12-23T13:45:55.227Z,11.67
2018-12-23T13:49:13.901Z,11.59
2018-12-23T13:52:16.569Z,11.53
2018-12-23T13:55:16.222Z,11.41
2018-12-23T13:58:20.602Z,11.31
2018-12-23T14:01:13.113Z,11.17
2018-12-23T14:04:39.104Z,11.00
2018-12-23T14:07:36.253Z,11.11
2018-12-23T14:10:47.363Z,11.05
2018-12-23T14:13:17.232Z,10.94
2018-12-23T14:15:47.272Z,10.91
2018-12-23T14:18:17.205Z,10.81
2018-12-23T14:20:47.018Z,10.76
2018-12-23T14:23:17.033Z,10.74
2018-12-23T14:25:47.786Z,10.69
2018-12-23T14:28:17.680Z,10.64
2018-12-23T14:30:47.526Z,10.62
2018-12-23T14:33:17.446Z,10.52
2018-12-23T14:35:47.321Z,10.43
2018-12-23T14:38:17.163Z,10.32
2018-12-23T14:40:47.029Z,10.23
2018-12-23T14:43:16.913Z,10.24
2018-12-23T14:45:46.736Z,10.24
2018-12-23T14:48:16.653Z,10.24
2018-12-23T14:50:46.581Z,10.15
2018-12-23T14:53:16.502Z,10.08
2018-12-23T14:55:46.504Z,10.05
2018-12-23T14:58:16.500Z,10.02
2018-12-23T15:00:46.380Z,10.00
2018-12-23T15:03:16.355Z,9.95
2018-12-23T15:05:46.302Z,9.98
2018-12-23T15:08:16.269Z,9.91
2018-12-23T15:10:46.760Z,9.84
2018-12-23T15:13:17.970Z,9.67
2018-12-23T15:15:48.108Z,9.65
2018-12-23T15:18:17.948Z,9.58
2018-12-23T15:20:48.049Z,9.55
2018-12-23T15:23:18.131Z,9.68
2018-12-23T15:25:48.040Z,9.70
2018-12-23T15:28:18.060Z,9.64
2018-12-23T15:30:48.018Z,9.67
2018-12-23T15:33:17.992Z,9.70
2018-12-23T15:35:47.996Z,9.63
2018-12-23T15:38:18.017Z,9.65
2018-12-23T15:40:47.945Z,9.83
2018-12-23T15:43:17.960Z,9.72
2018-12-23T15:45:47.834Z,9.61
2018-12-23T15:48:17.683Z,9.58
2018-12-23T15:50:47.612Z,9.55
2018-12-23T15:53:17.517Z,9.56
2018-12-23T15:55:47.566Z,9.68
2018-12-23T15:58:17.565Z,9.66
2018-12-23T16:00:47.452Z,9.56
2018-12-23T16:03:17.323Z,9.58
2018-12-23T16:05:47.318Z,9.58
2018-12-23T16:08:17.191Z,9.57
2018-12-23T16:10:47.165Z,9.61
2018-12-23T16:13:17.111Z,9.61
2018-12-23T16:15:47.080Z,9.49
2018-12-23T16:18:17.080Z,9.47
2018-12-23T16:20:46.901Z,9.51
2018-12-23T16:23:16.870Z,9.55
2018-12-23T16:25:46.784Z,9.57
2018-12-23T16:28:16.714Z,9.52
2018-12-23T16:30:46.686Z,9.56
2018-12-23T16:33:16.595Z,9.58
2018-12-23T16:35:46.535Z,9.50
2018-12-23T16:38:16.492Z,9.51
2018-12-23T16:40:46.549Z,9.43
2018-12-23T16:43:16.493Z,9.43
2018-12-23T16:45:46.457Z,9.36
2018-12-23T16:48:16.486Z,9.36
2018-12-23T16:50:46.415Z,9.47
2018-12-23T16:53:16.214Z,9.38
2018-12-23T16:55:46.242Z,9.34
2018-12-23T16:58:16.330Z,9.33
2018-12-23T17:00:46.299Z,9.34
2018-12-23T17:03:16.184Z,9.40
2018-12-23T17:05:46.211Z,9.40
2018-12-23T17:08:16.057Z,9.44
2018-12-23T17:10:45.914Z,9.42
2018-12-23T17:13:16.013Z,9.42
2018-12-23T17:15:45.959Z,9.39
2018-12-23T17:18:15.946Z,9.37
2018-12-23T17:20:45.979Z,9.33
2018-12-23T17:23:15.895Z,9.31
2018-12-23T17:25:45.794Z,9.34
2018-12-23T17:28:15.810Z,9.24
2018-12-23T17:30:45.728Z,9.39
2018-12-23T17:33:15.736Z,9.32
2018-12-23T17:35:45.581Z,9.23
2018-12-23T17:38:15.558Z,9.24
2018-12-23T17:40:45.485Z,9.15
2018-12-23T17:43:15.352Z,9.08
2018-12-23T17:45:45.284Z,9.15
2018-12-23T17:48:15.291Z,9.11
2018-12-23T17:50:45.285Z,9.05
2018-12-23T17:53:15.369Z,9.02
2018-12-23T17:55:45.261Z,8.97
2018-12-23T17:58:15.202Z,9.07
2018-12-23T18:00:45.229Z,9.09
2018-12-23T18:03:15.238Z,8.91
2018-12-23T18:05:45.175Z,8.91
2018-12-23T18:08:15.273Z,9.01
2018-12-23T18:10:45.288Z,9.01
2018-12-23T18:13:15.229Z,9.15
2018-12-23T18:15:45.129Z,9.03
2018-12-23T18:18:15.076Z,8.92
2018-12-23T18:20:44.988Z,8.90
2018-12-23T18:23:14.895Z,8.90
2018-12-23T18:25:44.715Z,8.99
2018-12-23T18:28:14.596Z,9.08
2018-12-23T18:30:44.615Z,8.99
2018-12-23T18:33:14.531Z,8.92
2018-12-23T18:35:44.402Z,8.96
2018-12-23T18:38:14.365Z,9.02
2018-12-23T18:40:44.235Z,9.00
2018-12-23T18:43:14.090Z,9.02
2018-12-23T18:45:44.115Z,9.07
2018-12-23T18:48:14.039Z,9.03
2018-12-23T18:50:44.147Z,8.99
2018-12-23T18:53:13.972Z,8.95
2018-12-23T18:55:44.016Z,8.94
2018-12-23T18:58:13.943Z,8.91
2018-12-23T19:00:46.518Z,8.93
2018-12-23T19:03:16.504Z,8.99
2018-12-23T19:05:46.568Z,9.01
2018-12-23T19:08:21.105Z,8.94
2018-12-23T19:11:23.186Z,8.91
2018-12-23T19:14:43.281Z,9.08
2018-12-23T19:17:53.372Z,8.99
2018-12-23T19:21:14.169Z,8.87
2018-12-23T19:24:17.686Z,8.88
2018-12-23T19:27:40.306Z,8.86
2018-12-23T19:30:52.221Z,8.79
2018-12-23T19:34:23.900Z,8.79
2018-12-23T19:37:20.916Z,8.80
2018-12-23T19:40:26.426Z,8.82
2018-12-23T19:43:20.765Z,8.62
2018-12-23T19:46:43.714Z,8.55
2018-12-23T19:49:51.809Z,8.92
2018-12-23T19:53:06.309Z,8.74
2018-12-23T19:56:01.008Z,8.62
2018-12-23T19:59:10.120Z,8.54
2018-12-23T20:02:39.333Z,8.44
2018-12-23T20:05:44.690Z,8.45
2018-12-23T20:08:50.533Z,8.35
2018-12-23T20:12:13.099Z,8.23
2018-12-23T20:15:44.905Z,8.25
2018-12-23T20:19:01.120Z,8.30
2018-12-23T20:22:01.113Z,8.09
2018-12-23T20:25:04.230Z,8.01
2018-12-23T20:28:16.652Z,8.07
2018-12-23T20:31:31.531Z,8.15
2018-12-23T20:35:00.642Z,8.14
2018-12-23T20:37:55.678Z,8.15
2018-12-23T20:41:07.500Z,8.19
2018-12-23T20:44:11.090Z,8.20
2018-12-23T20:47:20.993Z,8.41
2018-12-23T20:50:33.659Z,8.42
2018-12-23T20:53:30.868Z,8.23
2018-12-23T20:56:38.915Z,8.21
2018-12-23T20:59:51.040Z,8.33
2018-12-23T21:03:00.519Z,8.18
2018-12-23T21:06:15.695Z,8.23
2018-12-23T21:09:38.148Z,8.33
2018-12-23T21:12:54.366Z,8.13
2018-12-23T21:16:13.871Z,8.08
2018-12-23T21:19:10.439Z,8.18
2018-12-23T21:22:10.496Z,8.25
2018-12-23T21:25:20.309Z,8.17
2018-12-23T21:28:18.996Z,7.97
2018-12-23T21:31:02.140Z,8.03
2018-12-23T21:34:37.266Z,7.96
2018-12-23T21:37:47.467Z,7.96
2018-12-23T21:40:54.715Z,8.17
2018-12-23T21:44:05.332Z,8.15
2018-12-23T21:47:10.038Z,8.10
2018-12-23T21:50:20.825Z,8.13
2018-12-23T21:53:24.773Z,8.07
2018-12-23T21:56:18.825Z,7.99
2018-12-23T21:59:11.645Z,8.05
2018-12-23T22:02:12.834Z,8.03
2018-12-23T22:05:35.755Z,7.96
2018-12-23T22:08:30.647Z,7.85
2018-12-23T22:11:20.993Z,7.80
2018-12-23T22:13:50.871Z,7.76
2018-12-23T22:16:20.745Z,7.76
2018-12-23T22:18:50.826Z,7.75
2018-12-23T22:21:20.883Z,7.64
2018-12-23T22:23:50.778Z,7.60
2018-12-23T22:26:20.671Z,7.54
2018-12-23T22:28:50.506Z,7.55
2018-12-23T22:31:20.649Z,7.49
2018-12-23T22:33:50.572Z,7.39
2018-12-23T22:36:20.418Z,7.37
2018-12-23T22:38:50.314Z,7.26
2018-12-23T22:41:23.803Z,7.16
2018-12-23T22:43:53.673Z,7.18
2018-12-23T22:46:23.573Z,7.07
2018-12-23T22:48:53.552Z,6.99
2018-12-23T22:51:23.472Z,6.94
2018-12-23T22:53:53.374Z,6.88
2018-12-23T22:56:23.232Z,6.83
2018-12-23T22:58:53.223Z,6.76
2018-12-23T23:01:23.089Z,6.72
2018-12-23T23:03:53.022Z,6.67
2018-12-23T23:06:22.977Z,6.64
2018-12-23T23:08:52.856Z,6.63
2018-12-23T23:11:22.997Z,6.64
2018-12-23T23:13:52.963Z,6.59
2018-12-23T23:16:22.811Z,6.61
2018-12-23T23:18:52.868Z,6.61
2018-12-23T23:21:22.860Z,6.48
2018-12-23T23:23:52.757Z,6.47
2018-12-23T23:26:22.782Z,6.42
2018-12-23T23:28:52.739Z,6.46
2018-12-23T23:31:22.615Z,6.35
2018-12-23T23:33:52.579Z,6.34
2018-12-23T23:36:22.490Z,6.31
2018-12-23T23:38:52.505Z,6.28
2018-12-23T23:41:22.478Z,6.23
2018-12-23T23:43:52.340Z,6.19
2018-12-23T23:46:22.145Z,6.16
2018-12-23T23:48:52.142Z,6.08
2018-12-23T23:51:22.023Z,6.05
2018-12-23T23:53:51.880Z,5.98
2018-12-23T23:56:21.828Z,5.94
2018-12-23T23:58:51.904Z,5.92
